createdAt,value
2022-10-24T00:02:12.360Z,15.91
2022-10-24T00:05:00.026Z,16.02
2022-10-24T00:07:47.823Z,16.03
2022-10-24T00:10:37.471Z,15.81
2022-10-24T00:13:24.924Z,15.79
2022-10-24T00:16:13.712Z,15.74
2022-10-24T00:19:01.203Z,15.84
2022-10-24T00:21:48.960Z,15.78
2022-10-24T00:24:36.390Z,15.74
2022-10-24T00:27:25.524Z,15.66
2022-10-24T00:30:14.227Z,15.77
2022-10-24T00:33:02.272Z,15.66
2022-10-24T00:35:49.667Z,15.59
2022-10-24T00:38:37.317Z,15.56
2022-10-24T00:41:27.749Z,15.49
2022-10-24T00:44:24.193Z,15.43
2022-10-24T00:47:17.627Z,15.39
2022-10-24T00:50:15.313Z,15.34
2022-10-24T00:53:03.361Z,15.32
2022-10-24T00:55:55.954Z,15.28
2022-10-24T00:58:45.964Z,15.18
2022-10-24T01:01:36.060Z,15.16
2022-10-24T01:04:24.089Z,15.10
2022-10-24T01:07:40.299Z,14.96
2022-10-24T01:10:44.276Z,14.86
2022-10-24T01:13:45.857Z,14.75
2022-10-24T01:16:44.300Z,14.76
2022-10-24T01:20:24.522Z,14.69
2022-10-24T01:23:49.300Z,14.61
2022-10-24T01:27:48.677Z,14.48
2022-10-24T01:30:45.206Z,14.40
2022-10-24T01:33:39.389Z,14.32
2022-10-24T01:36:39.275Z,14.27
2022-10-24T01:39:35.593Z,14.22
2022-10-24T01:42:27.514Z,14.17
2022-10-24T01:45:25.065Z,14.10
2022-10-24T01:48:21.287Z,14.11
2022-10-24T01:51:12.525Z,14.12
2022-10-24T01:54:01.765Z,14.22
2022-10-24T01:56:49.989Z,14.29
2022-10-24T01:59:47.276Z,14.26
2022-10-24T02:02:40.889Z,14.29
2022-10-24T02:05:35.316Z,14.20
2022-10-24T02:08:35.798Z,14.22
2022-10-24T02:11:23.414Z,14.19
2022-10-24T02:14:18.242Z,14.10
2022-10-24T02:17:05.928Z,14.08
2022-10-24T02:19:54.689Z,14.04
2022-10-24T02:22:52.315Z,13.96
2022-10-24T02:25:47.673Z,13.93
2022-10-24T02:28:42.249Z,13.91
2022-10-24T02:31:39.604Z,13.86
2022-10-24T02:34:33.031Z,13.81
2022-10-24T02:37:21.903Z,13.79
2022-10-24T02:40:15.089Z,13.71
2022-10-24T02:43:06.066Z,13.68
2022-10-24T02:45:59.554Z,13.68
2022-10-24T02:48:57.546Z,13.67
2022-10-24T02:51:47.669Z,13.64
2022-10-24T02:54:35.769Z,13.60
2022-10-24T02:57:26.656Z,13.58
2022-10-24T03:00:15.408Z,13.50
2022-10-24T03:03:03.054Z,13.44
2022-10-24T03:05:50.650Z,13.40
2022-10-24T03:08:38.051Z,13.33
2022-10-24T03:11:25.716Z,13.31
2022-10-24T03:14:14.608Z,13.25
2022-10-24T03:17:02.106Z,13.19
2022-10-24T03:19:49.459Z,13.15
2022-10-24T03:22:37.280Z,13.10
2022-10-24T03:25:25.012Z,13.07
2022-10-24T03:28:12.505Z,13.02
2022-10-24T03:31:01.322Z,13.00
2022-10-24T03:33:48.905Z,12.98
2022-10-24T03:36:36.636Z,12.92
2022-10-24T03:39:24.670Z,12.87
2022-10-24T03:42:12.393Z,12.87
2022-10-24T03:45:00.980Z,12.79
2022-10-24T03:47:52.613Z,12.79
2022-10-24T03:50:40.598Z,12.76
2022-10-24T03:53:28.556Z,12.78
2022-10-24T03:56:16.284Z,12.75
2022-10-24T03:59:03.697Z,12.71
2022-10-24T04:01:51.369Z,12.74
2022-10-24T04:04:40.258Z,12.79
2022-10-24T04:07:27.917Z,12.84
2022-10-24T04:10:15.638Z,12.84
2022-10-24T04:13:02.985Z,12.84
2022-10-24T04:15:50.484Z,12.95
2022-10-24T04:18:38.151Z,12.92
2022-10-24T04:21:27.196Z,13.06
2022-10-24T04:24:16.090Z,13.04
2022-10-24T04:27:03.872Z,13.06
2022-10-24T04:29:51.626Z,13.03
2022-10-24T04:32:39.202Z,12.96
2022-10-24T04:35:27.151Z,12.89
2022-10-24T04:38:16.272Z,12.86
2022-10-24T04:41:06.215Z,12.84
2022-10-24T04:43:56.307Z,12.86
2022-10-24T04:46:47.883Z,12.85
2022-10-24T04:49:36.969Z,12.82
2022-10-24T04:52:28.004Z,12.82
2022-10-24T04:55:16.901Z,12.84
2022-10-24T04:58:05.675Z,12.85
2022-10-24T05:00:53.100Z,12.86
2022-10-24T05:03:40.572Z,12.84
2022-10-24T05:06:28.555Z,12.83
2022-10-24T05:09:16.156Z,12.76
2022-10-24T05:12:06.628Z,12.65
2022-10-24T05:14:54.361Z,12.74
2022-10-24T05:17:42.193Z,12.75
2022-10-24T05:20:30.650Z,12.83
2022-10-24T05:23:18.433Z,12.75
2022-10-24T05:26:06.276Z,12.80
2022-10-24T05:29:02.892Z,12.96
2022-10-24T05:31:50.625Z,12.99
2022-10-24T05:34:37.972Z,12.97
2022-10-24T05:37:25.732Z,12.99
2022-10-24T05:40:14.631Z,13.02
2022-10-24T05:43:02.197Z,13.03
2022-10-24T05:48:44.043Z,13.13
2022-10-24T05:51:31.629Z,13.08
2022-10-24T05:54:19.020Z,13.17
2022-10-24T05:57:07.036Z,13.20
2022-10-24T05:59:54.592Z,13.26
2022-10-24T06:02:44.223Z,13.32
2022-10-24T06:05:31.671Z,13.35
2022-10-24T06:08:19.692Z,13.40
2022-10-24T06:11:11.619Z,13.39
2022-10-24T06:13:59.219Z,13.35
2022-10-24T06:16:46.677Z,13.41
2022-10-24T06:19:37.544Z,13.32
2022-10-24T06:22:27.674Z,13.36
2022-10-24T06:25:15.724Z,13.43
2022-10-24T06:28:03.339Z,13.47
2022-10-24T06:30:54.416Z,13.49
2022-10-24T06:33:41.957Z,13.48
2022-10-24T06:36:31.680Z,13.51
2022-10-24T06:39:21.577Z,13.52
2022-10-24T06:42:09.106Z,13.44
2022-10-24T06:47:51.858Z,13.49
2022-10-24T06:50:41.696Z,13.51
2022-10-24T06:53:35.314Z,13.55
2022-10-24T06:56:23.505Z,13.61
2022-10-24T06:59:13.820Z,13.63
2022-10-24T07:02:04.945Z,13.70
2022-10-24T07:04:53.865Z,13.78
2022-10-24T07:07:43.921Z,13.82
2022-10-24T07:10:33.467Z,13.89
2022-10-24T07:13:22.686Z,13.92
2022-10-24T07:16:10.665Z,13.96
2022-10-24T07:18:58.322Z,13.91
2022-10-24T07:21:46.037Z,13.70
2022-10-24T07:24:33.750Z,13.76
2022-10-24T07:27:23.348Z,13.80
2022-10-24T07:30:18.818Z,13.69
2022-10-24T07:33:07.558Z,13.66
2022-10-24T07:35:55.315Z,13.64
2022-10-24T07:38:43.029Z,13.64
2022-10-24T07:41:33.484Z,13.68
2022-10-24T07:44:22.296Z,13.81
2022-10-24T07:47:10.138Z,13.73
2022-10-24T07:49:58.218Z,13.73
2022-10-24T07:52:45.491Z,13.70
2022-10-24T07:55:32.872Z,13.70
2022-10-24T07:58:20.421Z,13.72
2022-10-24T08:01:13.624Z,13.71
2022-10-24T08:04:01.500Z,13.69
2022-10-24T08:06:49.053Z,13.70
2022-10-24T08:09:39.108Z,13.76
2022-10-24T08:12:26.456Z,13.77
2022-10-24T08:15:14.185Z,13.79
2022-10-24T08:18:02.960Z,13.79
2022-10-24T08:20:59.861Z,13.78
2022-10-24T08:23:50.689Z,13.78
2022-10-24T08:26:40.569Z,13.76
2022-10-24T08:29:28.097Z,13.69
2022-10-24T08:32:15.486Z,13.72
2022-10-24T08:35:05.099Z,13.76
2022-10-24T08:37:52.562Z,13.76
2022-10-24T08:40:40.309Z,13.74
2022-10-24T08:43:28.500Z,13.79
2022-10-24T08:46:44.253Z,13.83
2022-10-24T08:49:43.234Z,13.77
2022-10-24T08:52:42.542Z,13.93
2022-10-24T08:55:55.423Z,13.98
2022-10-24T08:58:47.678Z,14.07
2022-10-24T09:01:48.539Z,14.14
2022-10-24T09:04:47.618Z,14.21
2022-10-24T09:07:36.852Z,14.15
2022-10-24T09:10:39.205Z,14.23
2022-10-24T09:13:29.625Z,14.24
2022-10-24T09:16:25.118Z,14.23
2022-10-24T09:19:18.506Z,14.26
2022-10-24T09:22:08.197Z,14.24
2022-10-24T09:25:02.042Z,14.30
2022-10-24T09:27:50.156Z,14.33
2022-10-24T09:30:39.239Z,14.33
2022-10-24T09:33:31.681Z,14.33
2022-10-24T09:36:24.884Z,14.37
2022-10-24T09:39:31.023Z,14.41
2022-10-24T09:42:23.743Z,14.41
2022-10-24T09:45:38.685Z,14.45
2022-10-24T09:48:30.663Z,14.49
2022-10-24T09:51:33.304Z,14.51
2022-10-24T09:54:29.974Z,14.53
2022-10-24T09:57:21.403Z,14.57
2022-10-24T10:00:22.820Z,14.59
2022-10-24T10:03:24.043Z,14.62
2022-10-24T10:06:19.705Z,14.66
2022-10-24T10:09:14.676Z,14.71
2022-10-24T10:12:03.015Z,14.72
2022-10-24T10:14:52.774Z,14.77
2022-10-24T10:17:52.264Z,14.79
2022-10-24T10:20:43.946Z,14.82
2022-10-24T10:23:34.698Z,14.82
2022-10-24T10:26:29.151Z,14.87
2022-10-24T10:29:25.261Z,14.88
2022-10-24T10:32:26.931Z,14.89
2022-10-24T10:35:23.597Z,14.92
2022-10-24T10:38:37.972Z,14.96
2022-10-24T10:41:43.434Z,15.01
2022-10-24T10:44:53.820Z,15.06
2022-10-24T10:47:55.327Z,15.13
2022-10-24T10:50:52.400Z,15.16
2022-10-24T10:53:49.996Z,15.16
2022-10-24T10:56:49.589Z,15.21
2022-10-24T10:59:54.402Z,15.23
2022-10-24T11:03:03.667Z,15.27
2022-10-24T11:06:06.355Z,15.31
2022-10-24T11:09:24.496Z,15.36
2022-10-24T11:12:21.091Z,15.38
2022-10-24T11:18:21.918Z,15.41
2022-10-24T11:21:12.994Z,15.39
2022-10-24T11:24:11.114Z,15.45
2022-10-24T11:27:11.312Z,15.50
2022-10-24T11:30:07.165Z,15.52
2022-10-24T11:33:02.763Z,15.60
2022-10-24T11:36:08.875Z,15.65
2022-10-24T11:39:04.327Z,15.68
2022-10-24T11:42:00.264Z,15.71
2022-10-24T11:44:54.966Z,15.72
2022-10-24T11:47:57.223Z,15.79
2022-10-24T11:50:52.421Z,15.84
2022-10-24T11:54:02.193Z,15.87
2022-10-24T11:56:56.114Z,15.91
2022-10-24T11:59:43.957Z,15.91
2022-10-24T12:03:09.549Z,15.87
2022-10-24T12:06:20.489Z,15.87
2022-10-24T12:09:48.865Z,15.96
2022-10-24T12:13:03.863Z,16.03
2022-10-24T12:16:05.405Z,16.08
2022-10-24T12:19:01.343Z,16.11
2022-10-24T12:21:54.735Z,16.11
2022-10-24T12:24:44.375Z,16.16
2022-10-24T12:27:35.903Z,16.16
2022-10-24T12:30:27.219Z,16.20
2022-10-24T12:33:28.850Z,16.27
2022-10-24T12:36:17.336Z,16.29
2022-10-24T12:39:05.898Z,16.25
2022-10-24T12:41:55.881Z,16.41
2022-10-24T12:44:47.884Z,16.42
2022-10-24T12:47:41.486Z,16.51
2022-10-24T12:51:33.501Z,16.53
2022-10-24T12:54:41.148Z,16.61
2022-10-24T12:57:46.980Z,16.65
2022-10-24T13:00:39.815Z,16.53
2022-10-24T13:03:57.099Z,16.54
2022-10-24T13:07:13.882Z,16.53
2022-10-24T13:10:25.856Z,16.41
2022-10-24T13:13:54.882Z,16.38
2022-10-24T13:16:59.129Z,16.42
2022-10-24T13:19:47.821Z,16.38
2022-10-24T13:22:38.888Z,16.33
2022-10-24T13:25:34.671Z,16.22
2022-10-24T13:28:47.572Z,16.21
2022-10-24T13:31:48.976Z,16.23
2022-10-24T13:34:46.185Z,16.08
2022-10-24T13:37:42.482Z,16.14
2022-10-24T13:40:33.199Z,15.90
2022-10-24T13:43:22.272Z,15.74
2022-10-24T13:46:16.323Z,15.64
2022-10-24T13:49:07.571Z,15.75
2022-10-24T13:52:03.903Z,15.63
2022-10-24T13:55:00.875Z,15.67
2022-10-24T13:57:59.936Z,15.72
2022-10-24T14:00:56.063Z,15.70
2022-10-24T14:03:47.788Z,15.66
2022-10-24T14:06:35.976Z,15.64
2022-10-24T14:09:23.831Z,15.63
2022-10-24T14:12:21.937Z,15.62
2022-10-24T14:15:19.883Z,15.65
2022-10-24T14:18:15.271Z,15.66
2022-10-24T14:21:05.489Z,15.61
2022-10-24T14:24:00.751Z,15.64
2022-10-24T14:26:53.450Z,15.62
2022-10-24T14:29:52.415Z,15.64
2022-10-24T14:32:40.359Z,15.62
2022-10-24T14:35:28.419Z,15.65
2022-10-24T14:38:19.290Z,15.67
2022-10-24T14:41:10.251Z,15.69
2022-10-24T14:43:59.610Z,15.68
2022-10-24T14:47:01.715Z,15.67
2022-10-24T14:49:49.607Z,15.69
2022-10-24T14:52:38.094Z,15.71
2022-10-24T14:55:27.510Z,15.68
2022-10-24T14:58:25.442Z,15.68
2022-10-24T15:01:19.527Z,15.64
2022-10-24T15:04:07.509Z,15.64
2022-10-24T15:06:57.754Z,15.66
2022-10-24T15:09:58.320Z,15.62
2022-10-24T15:12:55.171Z,15.63
2022-10-24T15:15:53.254Z,15.56
2022-10-24T15:18:45.175Z,15.55
2022-10-24T15:21:38.823Z,15.49
2022-10-24T15:24:28.329Z,15.47
2022-10-24T15:27:40.040Z,15.48
2022-10-24T15:30:32.469Z,15.43
2022-10-24T15:33:20.539Z,15.40
2022-10-24T15:36:22.828Z,15.33
2022-10-24T15:39:17.246Z,15.29
2022-10-24T15:42:04.985Z,15.25
2022-10-24T15:44:52.854Z,15.22
2022-10-24T15:47:42.013Z,15.18
2022-10-24T15:50:29.413Z,15.13
2022-10-24T15:53:20.999Z,15.09
2022-10-24T15:56:11.139Z,15.09
2022-10-24T15:58:58.544Z,15.04
2022-10-24T16:01:50.578Z,14.98
2022-10-24T16:04:40.319Z,14.97
2022-10-24T16:07:28.068Z,14.95
2022-10-24T16:10:19.776Z,14.92
2022-10-24T16:13:07.542Z,14.86
2022-10-24T16:15:55.585Z,14.82
2022-10-24T16:18:43.356Z,14.78
2022-10-24T16:21:32.718Z,14.68
2022-10-24T16:24:20.891Z,14.64
2022-10-24T16:27:08.625Z,14.62
2022-10-24T16:29:56.057Z,14.59
2022-10-24T16:32:44.022Z,14.51
2022-10-24T16:35:35.283Z,14.44
2022-10-24T16:38:24.394Z,14.39
2022-10-24T16:41:16.678Z,14.31
2022-10-24T16:44:05.154Z,14.28
2022-10-24T16:46:54.465Z,14.25
2022-10-24T16:49:41.958Z,14.16
2022-10-24T16:52:29.958Z,14.12
2022-10-24T16:55:19.420Z,14.06
2022-10-24T16:58:07.208Z,14.01
2022-10-24T17:01:04.520Z,13.99
2022-10-24T17:03:52.388Z,13.97
2022-10-24T17:06:40.454Z,13.93
2022-10-24T17:09:28.328Z,13.88
2022-10-24T17:12:17.663Z,13.84
2022-10-24T17:15:07.135Z,13.82
2022-10-24T17:17:54.989Z,13.78
2022-10-24T17:20:45.544Z,13.75
2022-10-24T17:23:34.725Z,13.73
2022-10-24T17:26:23.129Z,13.70
2022-10-24T17:29:24.206Z,13.64
2022-10-24T17:32:14.875Z,13.62
2022-10-24T17:35:03.237Z,13.56
2022-10-24T17:38:08.157Z,13.55
2022-10-24T17:41:01.568Z,13.53
2022-10-24T17:43:50.574Z,13.50
2022-10-24T17:46:40.668Z,13.48
2022-10-24T17:49:28.195Z,13.45
2022-10-24T17:52:23.764Z,13.40
2022-10-24T17:55:40.983Z,13.38
2022-10-24T17:58:28.121Z,13.36
2022-10-24T18:01:15.484Z,13.34
2022-10-24T18:04:05.275Z,13.26
2022-10-24T18:06:52.886Z,13.26
2022-10-24T18:09:40.477Z,13.23
2022-10-24T18:12:28.319Z,13.22
2022-10-24T18:15:19.412Z,13.22
2022-10-24T18:18:07.841Z,13.21
2022-10-24T18:21:08.545Z,13.20
2022-10-24T18:23:57.080Z,13.21
2022-10-24T18:26:46.656Z,13.23
2022-10-24T18:29:34.303Z,13.23
2022-10-24T18:32:21.821Z,13.21
2022-10-24T18:35:10.476Z,13.21
2022-10-24T18:37:59.473Z,13.20
2022-10-24T18:40:48.078Z,13.22
2022-10-24T18:43:36.283Z,13.22
2022-10-24T18:46:24.772Z,13.19
2022-10-24T18:49:12.969Z,13.20
2022-10-24T18:52:16.779Z,13.19
2022-10-24T18:55:16.718Z,13.17
2022-10-24T18:58:05.268Z,13.21
2022-10-24T19:00:59.965Z,13.24
2022-10-24T19:03:47.948Z,13.23
2022-10-24T19:06:38.562Z,13.27
2022-10-24T19:09:27.900Z,13.27
2022-10-24T19:12:17.587Z,13.26
2022-10-24T19:15:06.735Z,13.23
2022-10-24T19:17:54.161Z,13.24
2022-10-24T19:20:42.469Z,13.21
2022-10-24T19:23:30.169Z,13.20
2022-10-24T19:26:18.358Z,13.22
2022-10-24T19:29:07.030Z,13.25
2022-10-24T19:31:54.420Z,13.27
2022-10-24T19:34:41.925Z,13.27
2022-10-24T19:37:29.518Z,13.28
2022-10-24T19:40:17.180Z,13.28
2022-10-24T19:43:04.675Z,13.26
2022-10-24T19:46:07.484Z,13.26
2022-10-24T19:49:03.716Z,13.25
2022-10-24T19:51:52.266Z,13.21
2022-10-24T19:54:43.195Z,13.24
2022-10-24T19:57:31.135Z,13.27
2022-10-24T20:00:19.222Z,13.32
2022-10-24T20:03:08.301Z,13.27
2022-10-24T20:05:59.884Z,13.22
2022-10-24T20:21:48.081Z,13.11
2022-10-24T20:24:35.719Z,13.21
2022-10-24T20:27:24.758Z,13.25
2022-10-24T20:30:13.869Z,13.27
2022-10-24T20:37:22.314Z,13.27
2022-10-24T20:40:12.813Z,13.31
2022-10-24T20:43:01.987Z,13.31
2022-10-24T20:45:49.635Z,13.32
2022-10-24T20:48:37.693Z,13.31
2022-10-24T20:51:25.095Z,13.32
2022-10-24T20:54:14.265Z,13.33
2022-10-24T20:57:02.023Z,13.40
2022-10-24T20:59:49.636Z,13.35
2022-10-24T21:02:37.615Z,13.31
2022-10-24T21:05:27.333Z,13.32
2022-10-24T21:08:15.170Z,13.31
2022-10-24T21:11:08.442Z,13.30
2022-10-24T21:13:58.916Z,13.30
2022-10-24T21:16:46.633Z,13.26
2022-10-24T21:19:33.992Z,13.23
2022-10-24T21:22:21.402Z,13.18
2022-10-24T21:25:09.791Z,13.21
2022-10-24T21:27:58.803Z,13.19
2022-10-24T21:30:46.508Z,13.17
2022-10-24T21:33:35.050Z,13.15
2022-10-24T21:36:24.671Z,13.13
2022-10-24T21:39:14.006Z,13.10
2022-10-24T21:42:01.510Z,13.07
2022-10-24T21:44:50.484Z,13.06
2022-10-24T21:47:37.762Z,13.02
2022-10-24T21:50:25.149Z,13.01
2022-10-24T21:53:12.653Z,12.97
2022-10-24T21:56:04.354Z,12.96
2022-10-24T21:58:55.105Z,12.92
2022-10-24T22:01:46.818Z,12.89
2022-10-24T22:04:34.545Z,12.86
2022-10-24T22:07:22.398Z,12.84
2022-10-24T22:10:11.155Z,12.80
2022-10-24T22:12:58.980Z,12.78
2022-10-24T22:15:46.231Z,12.75
2022-10-24T22:18:35.983Z,12.73
2022-10-24T22:21:28.742Z,12.74
2022-10-24T22:24:18.379Z,12.72
2022-10-24T22:27:06.083Z,12.69
2022-10-24T22:29:53.489Z,12.68
2022-10-24T22:32:41.333Z,12.67
2022-10-24T22:35:31.652Z,12.66
2022-10-24T22:38:19.761Z,12.64
2022-10-24T22:41:11.836Z,12.63
2022-10-24T22:44:00.106Z,12.64
2022-10-24T22:47:18.306Z,12.64
2022-10-24T22:50:26.094Z,12.64
2022-10-24T22:53:19.858Z,12.63
2022-10-24T22:56:17.696Z,12.64
2022-10-24T22:59:05.957Z,12.59
2022-10-24T23:02:03.749Z,12.62
2022-10-24T23:05:04.282Z,12.56
2022-10-24T23:08:02.157Z,12.56
2022-10-24T23:10:52.132Z,12.55
2022-10-24T23:13:40.979Z,12.53
2022-10-24T23:16:36.978Z,12.50
2022-10-24T23:19:28.055Z,12.45
2022-10-24T23:22:25.754Z,12.42
2022-10-24T23:25:15.407Z,12.39
2022-10-24T23:28:14.396Z,12.34
2022-10-24T23:33:51.376Z,12.26
2022-10-24T23:36:46.514Z,12.22
2022-10-24T23:39:36.561Z,12.19
2022-10-24T23:42:25.168Z,12.15
2022-10-24T23:45:17.090Z,12.09
2022-10-24T23:48:30.693Z,12.04
2022-10-24T23:51:28.734Z,12.01
2022-10-24T23:54:25.430Z,11.94
2022-10-24T23:57:19.663Z,11.91
